createdAt,value
2022-11-13T00:01:23.736Z,9.49
2022-11-13T00:03:50.975Z,9.44
2022-11-13T00:06:19.717Z,9.55
2022-11-13T00:08:47.903Z,9.63
2022-11-13T00:11:19.880Z,9.71
2022-11-13T00:13:48.571Z,9.59
2022-11-13T00:16:20.088Z,9.58
2022-11-13T00:18:48.102Z,9.47
2022-11-13T00:21:18.739Z,9.50
2022-11-13T00:23:45.892Z,9.47
2022-11-13T00:26:16.457Z,9.52
2022-11-13T00:28:44.183Z,9.45
2022-11-13T00:31:15.129Z,9.64
2022-11-13T00:36:29.450Z,9.49
2022-11-13T00:38:56.926Z,9.44
2022-11-13T00:41:24.686Z,9.52
2022-11-13T00:43:52.196Z,9.41
2022-11-13T00:46:19.720Z,9.45
2022-11-13T00:48:46.887Z,9.56
2022-11-13T00:51:13.992Z,9.54
2022-11-13T00:53:40.995Z,9.45
2022-11-13T00:56:08.296Z,9.54
2022-11-13T00:58:35.242Z,9.51
2022-11-13T01:01:12.879Z,9.60
2022-11-13T01:03:40.015Z,9.46
2022-11-13T01:06:21.489Z,9.43
2022-11-13T01:08:48.739Z,9.40
2022-11-13T01:11:20.190Z,9.51
2022-11-13T01:13:49.933Z,9.67
2022-11-13T01:16:21.036Z,9.46
2022-11-13T01:18:48.282Z,9.56
2022-11-13T01:21:19.450Z,9.57
2022-11-13T01:23:46.719Z,9.59
2022-11-13T01:26:24.234Z,9.37
2022-11-13T01:28:51.426Z,9.32
2022-11-13T01:31:23.409Z,9.35
2022-11-13T01:33:50.537Z,9.46
2022-11-13T01:36:24.499Z,9.50
2022-11-13T01:38:52.330Z,9.51
2022-11-13T01:41:30.134Z,9.72
2022-11-13T01:43:58.067Z,9.50
2022-11-13T01:46:33.893Z,9.62
2022-11-13T01:49:10.029Z,9.55
2022-11-13T01:51:49.278Z,9.53
2022-11-13T01:54:33.808Z,9.75
2022-11-13T01:57:02.761Z,9.65
2022-11-13T01:59:38.769Z,9.57
2022-11-13T02:02:06.572Z,9.61
2022-11-13T02:04:34.149Z,9.52
2022-11-13T02:07:06.062Z,9.59
2022-11-13T02:09:42.847Z,9.67
2022-11-13T02:12:17.133Z,9.74
2022-11-13T02:14:52.695Z,9.64
2022-11-13T02:17:43.199Z,9.62
2022-11-13T02:20:11.348Z,9.59
2022-11-13T02:23:09.916Z,9.49
2022-11-13T02:25:38.610Z,9.49
2022-11-13T02:28:05.555Z,9.62
2022-11-13T02:30:35.221Z,9.47
2022-11-13T02:33:02.476Z,9.48
2022-11-13T02:35:37.638Z,9.68
2022-11-13T02:38:06.380Z,9.57
2022-11-13T02:40:34.072Z,9.58
2022-11-13T02:43:01.147Z,9.51
2022-11-13T02:45:28.127Z,9.62
2022-11-13T02:47:55.178Z,9.52
2022-11-13T02:50:22.349Z,9.58
2022-11-13T02:52:49.339Z,9.63
2022-11-13T02:55:16.445Z,9.70
2022-11-13T02:57:43.365Z,9.54
2022-11-13T03:00:14.074Z,9.54
2022-11-13T03:02:42.024Z,9.61
2022-11-13T03:05:12.883Z,9.48
2022-11-13T03:07:41.122Z,9.45
2022-11-13T03:10:09.961Z,9.61
2022-11-13T03:12:37.386Z,9.46
2022-11-13T03:15:06.140Z,9.46
2022-11-13T03:17:33.990Z,9.48
2022-11-13T03:20:00.947Z,9.51
2022-11-13T03:22:28.297Z,9.39
2022-11-13T03:24:55.235Z,9.53
2022-11-13T03:27:22.408Z,9.39
2022-11-13T03:29:49.515Z,9.44
2022-11-13T03:32:16.555Z,9.40
2022-11-13T03:34:43.524Z,9.40
2022-11-13T03:37:10.639Z,9.50
2022-11-13T03:39:37.588Z,9.57
2022-11-13T03:42:04.568Z,9.38
2022-11-13T03:44:31.531Z,9.48
2022-11-13T03:46:58.500Z,9.61
2022-11-13T03:49:25.463Z,9.40
2022-11-13T03:51:52.415Z,9.36
2022-11-13T03:54:19.433Z,9.28
2022-11-13T03:56:46.431Z,9.36
2022-11-13T03:59:13.423Z,9.28
2022-11-13T04:01:40.412Z,9.28
2022-11-13T04:04:07.381Z,9.23
2022-11-13T04:06:34.403Z,9.20
2022-11-13T04:09:01.370Z,9.36
2022-11-13T04:11:28.468Z,9.34
2022-11-13T04:13:55.413Z,9.31
2022-11-13T04:16:22.362Z,9.21
2022-11-13T04:18:49.310Z,9.30
2022-11-13T04:21:16.247Z,9.26
2022-11-13T04:23:43.253Z,9.35
2022-11-13T04:26:10.159Z,9.34
2022-11-13T04:28:37.140Z,9.33
2022-11-13T04:31:04.111Z,9.33
2022-11-13T04:33:31.100Z,9.47
2022-11-13T04:35:58.051Z,9.36
2022-11-13T04:38:25.128Z,9.35
2022-11-13T04:41:15.370Z,9.42
2022-11-13T04:43:42.391Z,9.44
2022-11-13T04:46:09.371Z,9.36
2022-11-13T04:48:36.432Z,9.46
2022-11-13T04:51:03.572Z,9.41
2022-11-13T04:53:30.535Z,9.34
2022-11-13T04:55:57.579Z,9.30
2022-11-13T04:58:24.612Z,9.50
2022-11-13T05:00:51.587Z,9.61
2022-11-13T05:03:18.601Z,9.49
2022-11-13T05:05:45.666Z,9.38
2022-11-13T05:08:12.841Z,9.42
2022-11-13T05:10:39.922Z,9.34
2022-11-13T05:13:06.864Z,9.39
2022-11-13T05:15:33.865Z,9.44
2022-11-13T05:18:00.875Z,9.40
2022-11-13T05:20:27.882Z,9.45
2022-11-13T05:22:54.797Z,9.39
2022-11-13T05:25:21.780Z,9.24
2022-11-13T05:27:48.702Z,9.36
2022-11-13T05:30:16.387Z,9.48
2022-11-13T05:32:43.392Z,9.36
2022-11-13T05:35:10.380Z,9.27
2022-11-13T05:37:37.361Z,9.20
2022-11-13T05:40:04.953Z,9.28
2022-11-13T05:42:32.017Z,9.24
2022-11-13T05:44:58.947Z,9.31
2022-11-13T05:47:25.905Z,9.33
2022-11-13T05:49:52.842Z,9.35
2022-11-13T05:52:19.801Z,9.40
2022-11-13T05:54:46.760Z,9.36
2022-11-13T05:57:13.686Z,9.42
2022-11-13T05:59:40.693Z,9.38
2022-11-13T06:02:07.733Z,9.34
2022-11-13T06:04:34.802Z,9.24
2022-11-13T06:07:01.764Z,9.26
2022-11-13T06:09:28.739Z,9.45
2022-11-13T06:11:55.629Z,9.42
2022-11-13T06:14:22.572Z,9.37
2022-11-13T06:16:49.505Z,9.44
2022-11-13T06:19:16.452Z,9.57
2022-11-13T06:21:43.478Z,9.49
2022-11-13T06:24:12.577Z,9.56
2022-11-13T06:26:39.777Z,9.80
2022-11-13T06:29:10.191Z,9.61
2022-11-13T06:31:37.798Z,9.65
2022-11-13T06:34:06.222Z,9.56
2022-11-13T06:36:37.062Z,9.49
2022-11-13T06:39:09.256Z,9.56
2022-11-13T06:41:38.500Z,9.53
2022-11-13T06:44:05.618Z,9.60
2022-11-13T06:46:32.778Z,9.67
2022-11-13T06:49:00.067Z,9.70
2022-11-13T06:51:30.950Z,9.76
2022-11-13T06:53:58.583Z,9.88
2022-11-13T06:56:26.819Z,10.01
2022-11-13T06:58:55.953Z,9.98
2022-11-13T07:01:25.577Z,9.99
2022-11-13T07:03:53.217Z,9.86
2022-11-13T07:06:23.230Z,9.89
2022-11-13T07:08:50.916Z,9.92
2022-11-13T07:11:21.976Z,10.03
2022-11-13T07:13:49.861Z,9.87
2022-11-13T07:16:18.477Z,10.03
2022-11-13T07:18:54.049Z,9.76
2022-11-13T07:21:21.853Z,9.72
2022-11-13T07:23:50.277Z,9.72
2022-11-13T07:26:17.469Z,9.73
2022-11-13T07:28:44.650Z,9.98
2022-11-13T07:31:13.968Z,9.86
2022-11-13T07:33:41.019Z,9.93
2022-11-13T07:36:08.994Z,10.00
2022-11-13T07:38:36.748Z,10.06
2022-11-13T07:41:03.806Z,10.21
2022-11-13T07:43:30.886Z,10.26
2022-11-13T07:46:01.652Z,10.13
2022-11-13T07:48:29.765Z,9.97
2022-11-13T07:51:02.559Z,10.05
2022-11-13T07:53:30.294Z,10.25
2022-11-13T07:56:01.834Z,10.28
2022-11-13T07:58:29.307Z,10.10
2022-11-13T08:01:03.830Z,10.08
2022-11-13T08:03:31.438Z,10.12
2022-11-13T08:06:05.213Z,10.29
2022-11-13T08:08:32.666Z,10.33
2022-11-13T08:11:07.017Z,10.16
2022-11-13T08:13:34.911Z,10.27
2022-11-13T08:16:03.334Z,10.69
2022-11-13T08:18:31.813Z,10.40
2022-11-13T08:21:02.823Z,10.56
2022-11-13T08:23:30.277Z,10.47
2022-11-13T08:25:57.333Z,10.36
2022-11-13T08:28:24.656Z,10.33
2022-11-13T08:30:51.580Z,10.21
2022-11-13T08:33:19.007Z,10.16
2022-11-13T08:35:54.495Z,10.33
2022-11-13T08:38:21.726Z,10.21
2022-11-13T08:40:49.329Z,10.11
2022-11-13T08:43:16.628Z,10.19
2022-11-13T08:45:47.470Z,10.16
2022-11-13T08:48:15.032Z,10.14
2022-11-13T08:50:42.040Z,10.26
2022-11-13T08:53:09.180Z,10.40
2022-11-13T08:55:36.404Z,10.30
2022-11-13T08:58:04.647Z,10.41
2022-11-13T09:00:33.289Z,10.48
2022-11-13T09:03:01.510Z,10.55
2022-11-13T09:05:28.489Z,10.57
2022-11-13T09:08:01.204Z,10.44
2022-11-13T09:10:28.755Z,10.57
2022-11-13T09:13:01.993Z,10.57
2022-11-13T09:15:31.709Z,10.48
2022-11-13T09:18:00.664Z,10.58
2022-11-13T09:20:29.663Z,10.50
2022-11-13T09:23:02.440Z,10.39
2022-11-13T09:25:36.998Z,10.42
2022-11-13T09:28:06.565Z,10.72
2022-11-13T09:30:34.328Z,10.70
2022-11-13T09:33:01.813Z,10.55
2022-11-13T09:35:36.766Z,10.46
2022-11-13T09:38:11.619Z,10.45
2022-11-13T09:41:06.909Z,10.41
2022-11-13T09:43:38.096Z,10.26
2022-11-13T09:46:43.333Z,10.51
2022-11-13T09:49:25.775Z,10.45
2022-11-13T09:52:05.238Z,10.31
2022-11-13T09:54:34.196Z,10.18
2022-11-13T09:57:26.339Z,10.18
2022-11-13T10:00:03.454Z,10.41
2022-11-13T10:02:57.515Z,10.39
2022-11-13T10:05:43.152Z,10.39
2022-11-13T10:08:24.809Z,10.44
2022-11-13T10:11:32.955Z,10.38
2022-11-13T10:14:18.192Z,10.33
2022-11-13T10:17:38.623Z,10.58
2022-11-13T10:20:07.392Z,10.52
2022-11-13T10:22:34.751Z,10.53
2022-11-13T10:25:28.641Z,10.50
2022-11-13T10:28:11.377Z,10.56
2022-11-13T10:30:49.449Z,10.66
2022-11-13T10:33:23.396Z,10.55
2022-11-13T10:35:55.239Z,10.51
2022-11-13T10:38:40.401Z,10.35
2022-11-13T10:41:15.633Z,10.47
2022-11-13T10:44:02.221Z,10.42
2022-11-13T10:46:31.227Z,10.61
2022-11-13T10:48:59.179Z,10.26
2022-11-13T10:51:32.269Z,10.43
2022-11-13T10:53:59.943Z,10.46
2022-11-13T10:56:36.429Z,10.36
2022-11-13T10:59:19.129Z,10.33
2022-11-13T11:01:47.969Z,10.36
2022-11-13T11:04:24.597Z,10.43
2022-11-13T11:09:43.454Z,10.73
2022-11-13T11:12:30.417Z,10.58
2022-11-13T11:14:57.801Z,10.45
2022-11-13T11:17:59.414Z,10.56
2022-11-13T11:20:46.928Z,10.67
2022-11-13T11:23:34.642Z,10.67
2022-11-13T11:26:21.574Z,10.65
2022-11-13T11:29:08.666Z,10.79
2022-11-13T11:31:50.982Z,10.87
2022-11-13T11:34:28.888Z,10.86
2022-11-13T11:37:14.223Z,10.94
2022-11-13T11:39:51.655Z,10.93
2022-11-13T11:42:38.155Z,11.03
2022-11-13T11:45:26.348Z,10.98
2022-11-13T11:47:54.285Z,10.83
2022-11-13T11:51:09.520Z,10.76
2022-11-13T11:54:04.135Z,10.86
2022-11-13T11:56:41.998Z,10.99
2022-11-13T11:59:44.489Z,10.95
2022-11-13T12:02:53.578Z,11.06
2022-11-13T12:05:50.039Z,10.96
2022-11-13T12:08:47.795Z,10.88
2022-11-13T12:11:35.207Z,10.93
2022-11-13T12:14:25.151Z,10.99
2022-11-13T12:17:16.680Z,10.95
2022-11-13T12:20:22.512Z,11.17
2022-11-13T12:23:16.662Z,11.14
2022-11-13T12:26:06.158Z,10.99
2022-11-13T12:28:51.152Z,10.98
2022-11-13T12:31:47.883Z,11.29
2022-11-13T12:35:10.428Z,11.29
2022-11-13T12:38:06.238Z,11.00
2022-11-13T12:40:54.802Z,10.98
2022-11-13T12:43:50.969Z,10.97
2022-11-13T12:46:18.880Z,11.09
2022-11-13T12:48:48.268Z,11.37
2022-11-13T12:51:18.458Z,11.22
2022-11-13T12:53:52.311Z,11.11
2022-11-13T12:56:26.412Z,11.16
2022-11-13T13:02:07.329Z,11.08
2022-11-13T13:04:43.202Z,11.06
2022-11-13T13:07:43.496Z,11.19
2022-11-13T13:10:49.399Z,10.99
2022-11-13T13:13:30.990Z,11.07
2022-11-13T13:16:02.856Z,10.90
2022-11-13T13:18:39.242Z,10.96
2022-11-13T13:21:16.013Z,11.03
2022-11-13T13:23:53.444Z,11.17
2022-11-13T13:26:25.333Z,11.18
2022-11-13T13:29:02.152Z,11.27
2022-11-13T13:32:21.062Z,11.19
2022-11-13T13:35:26.582Z,11.06
2022-11-13T13:38:22.358Z,10.79
2022-11-13T13:41:18.019Z,10.92
2022-11-13T13:44:23.083Z,11.00
2022-11-13T13:46:50.997Z,11.03
2022-11-13T13:49:22.813Z,10.98
2022-11-13T13:51:56.947Z,10.96
2022-11-13T13:54:31.721Z,11.06
2022-11-13T13:56:59.208Z,10.85
2022-11-13T13:59:35.377Z,11.02
2022-11-13T14:02:13.638Z,11.06
2022-11-13T14:04:50.427Z,10.91
2022-11-13T14:07:30.575Z,10.77
2022-11-13T14:10:15.357Z,10.90
2022-11-13T14:12:46.873Z,10.99
2022-11-13T14:15:23.158Z,11.06
2022-11-13T14:17:50.210Z,11.08
2022-11-13T14:20:17.845Z,11.00
2022-11-13T14:22:55.249Z,10.93
2022-11-13T14:25:27.515Z,10.92
2022-11-13T14:27:54.576Z,10.86
2022-11-13T14:30:27.417Z,10.77
2022-11-13T14:32:55.220Z,10.77
2022-11-13T14:35:26.609Z,10.93
2022-11-13T14:37:55.069Z,10.91
2022-11-13T14:40:23.921Z,10.85
2022-11-13T14:42:58.736Z,11.10
2022-11-13T14:45:29.570Z,10.85
2022-11-13T14:48:21.279Z,10.75
2022-11-13T14:50:56.825Z,10.93
2022-11-13T14:54:03.813Z,10.70
2022-11-13T14:56:41.623Z,10.64
2022-11-13T14:59:27.924Z,10.58
2022-11-13T15:01:58.868Z,10.68
2022-11-13T15:04:26.304Z,10.71
2022-11-13T15:06:56.843Z,10.75
2022-11-13T15:09:25.567Z,10.64
2022-11-13T15:11:52.815Z,10.62
2022-11-13T15:14:21.997Z,10.59
2022-11-13T15:16:52.165Z,10.53
2022-11-13T15:19:39.413Z,10.44
2022-11-13T15:22:26.603Z,10.48
2022-11-13T15:24:54.466Z,10.38
2022-11-13T15:27:21.407Z,10.39
2022-11-13T15:29:48.579Z,10.51
2022-11-13T15:32:16.195Z,10.40
2022-11-13T15:34:43.661Z,10.48
2022-11-13T15:37:16.209Z,10.42
2022-11-13T15:39:43.294Z,10.43
2022-11-13T15:42:16.438Z,10.47
2022-11-13T15:44:43.594Z,10.52
2022-11-13T15:47:25.083Z,10.49
2022-11-13T15:50:12.462Z,10.41
2022-11-13T15:52:42.623Z,10.47
2022-11-13T15:55:29.831Z,10.35
2022-11-13T15:57:58.454Z,10.33
2022-11-13T16:00:28.186Z,10.44
2022-11-13T16:02:57.097Z,10.36
2022-11-13T16:05:29.401Z,10.29
2022-11-13T16:07:56.972Z,10.46
2022-11-13T16:10:25.429Z,10.44
2022-11-13T16:12:53.680Z,10.33
2022-11-13T16:15:21.627Z,10.51
2022-11-13T16:18:01.926Z,10.32
2022-11-13T16:20:28.836Z,10.35
2022-11-13T16:22:55.780Z,10.54
2022-11-13T16:25:23.196Z,10.52
2022-11-13T16:27:50.906Z,10.57
2022-11-13T16:30:21.897Z,10.43
2022-11-13T16:32:49.145Z,10.50
2022-11-13T16:35:18.427Z,10.60
2022-11-13T16:37:45.888Z,10.44
2022-11-13T16:40:25.569Z,10.36
2022-11-13T16:42:53.272Z,10.42
2022-11-13T16:45:21.659Z,10.38
2022-11-13T16:47:50.530Z,10.62
2022-11-13T16:50:30.060Z,10.55
2022-11-13T16:52:57.026Z,10.64
2022-11-13T16:55:24.445Z,10.58
2022-11-13T16:57:51.449Z,10.48
2022-11-13T17:00:20.393Z,10.61
2022-11-13T17:02:50.750Z,10.68
2022-11-13T17:05:18.453Z,10.49
2022-11-13T17:07:45.836Z,10.59
2022-11-13T17:10:32.676Z,10.55
2022-11-13T17:13:00.876Z,10.51
2022-11-13T17:15:27.952Z,10.37
2022-11-13T17:17:59.770Z,10.52
2022-11-13T17:20:26.930Z,10.62
2022-11-13T17:22:54.449Z,10.48
2022-11-13T17:25:23.322Z,10.47
2022-11-13T17:27:50.256Z,10.28
2022-11-13T17:30:17.569Z,10.26
2022-11-13T17:32:44.598Z,10.35
2022-11-13T17:35:13.099Z,10.43
2022-11-13T17:37:40.391Z,10.44
2022-11-13T17:40:09.197Z,10.22
2022-11-13T17:42:36.118Z,10.42
2022-11-13T17:45:03.208Z,10.31
2022-11-13T17:47:30.137Z,10.26
2022-11-13T17:50:01.165Z,10.25
2022-11-13T17:52:31.100Z,10.23
2022-11-13T17:54:58.091Z,10.35
2022-11-13T17:57:27.083Z,10.10
2022-11-13T17:59:54.343Z,10.03
2022-11-13T18:02:21.320Z,10.10
2022-11-13T18:04:48.349Z,10.23
2022-11-13T18:07:15.433Z,10.19
2022-11-13T18:09:42.765Z,10.17
2022-11-13T18:12:09.690Z,10.07
2022-11-13T18:14:36.610Z,10.13
2022-11-13T18:17:03.524Z,10.13
2022-11-13T18:19:30.586Z,9.94
2022-11-13T18:21:57.542Z,9.91
2022-11-13T18:27:19.483Z,9.94
2022-11-13T18:29:46.420Z,9.95
2022-11-13T18:32:13.379Z,10.03
2022-11-13T18:34:40.291Z,9.98
2022-11-13T18:37:07.289Z,10.03
2022-11-13T18:39:34.203Z,9.99
2022-11-13T18:42:01.271Z,9.80
2022-11-13T18:44:28.264Z,9.82
2022-11-13T18:46:55.202Z,9.91
2022-11-13T18:49:22.251Z,9.88
2022-11-13T18:51:49.223Z,9.82
2022-11-13T18:54:16.232Z,9.63
2022-11-13T18:56:43.176Z,9.63
2022-11-13T18:59:10.795Z,9.61
2022-11-13T19:01:40.006Z,9.57
2022-11-13T19:04:22.914Z,9.60
2022-11-13T19:06:55.037Z,9.91
2022-11-13T19:09:22.081Z,9.82
2022-11-13T19:16:19.514Z,9.62
2022-11-13T19:18:58.601Z,9.62
2022-11-13T19:21:29.911Z,9.65
2022-11-13T19:23:58.587Z,9.64
2022-11-13T19:26:26.212Z,9.48
2022-11-13T19:28:54.713Z,9.67
2022-11-13T19:31:25.204Z,9.62
2022-11-13T19:34:01.495Z,9.40
2022-11-13T19:36:31.484Z,9.39
2022-11-13T19:39:00.156Z,9.53
2022-11-13T19:41:29.645Z,9.62
2022-11-13T19:43:59.794Z,9.69
2022-11-13T19:46:28.310Z,9.49
2022-11-13T19:48:55.344Z,9.63
2022-11-13T19:51:25.257Z,9.78
2022-11-13T19:53:58.361Z,9.69
2022-11-13T19:56:30.645Z,9.58
2022-11-13T19:58:57.827Z,9.38
2022-11-13T20:01:27.921Z,9.39
2022-11-13T20:03:58.178Z,9.54
2022-11-13T20:06:26.187Z,9.31
2022-11-13T20:08:53.117Z,9.28
2022-11-13T20:11:20.473Z,9.35
2022-11-13T20:13:47.623Z,9.34
2022-11-13T20:16:16.689Z,9.40
2022-11-13T20:18:44.789Z,9.22
2022-11-13T20:21:12.217Z,9.35
2022-11-13T20:23:39.826Z,9.34
2022-11-13T20:26:12.176Z,9.33
2022-11-13T20:28:39.238Z,9.44
2022-11-13T20:31:23.989Z,9.32
2022-11-13T20:33:53.824Z,9.32
2022-11-13T20:36:22.385Z,9.18
2022-11-13T20:38:54.749Z,9.17
2022-11-13T20:41:22.243Z,9.13
2022-11-13T20:43:50.166Z,9.44
2022-11-13T20:46:19.428Z,9.39
2022-11-13T20:48:46.780Z,9.30
2022-11-13T20:51:16.063Z,9.27
2022-11-13T20:53:43.593Z,9.35
2022-11-13T20:56:11.103Z,9.32
2022-11-13T20:58:38.751Z,9.45
2022-11-13T21:01:20.820Z,9.32
2022-11-13T21:03:48.863Z,9.28
2022-11-13T21:06:19.501Z,9.34
2022-11-13T21:08:47.054Z,9.25
2022-11-13T21:11:19.109Z,9.24
2022-11-13T21:13:47.458Z,9.26
2022-11-13T21:16:14.774Z,9.23
2022-11-13T21:18:42.396Z,9.29
2022-11-13T21:21:12.799Z,9.30
2022-11-13T21:23:40.212Z,9.32
2022-11-13T21:26:09.177Z,9.30
2022-11-13T21:28:36.811Z,9.27
2022-11-13T21:31:06.283Z,9.35
2022-11-13T21:33:38.442Z,9.30
2022-11-13T21:36:16.289Z,9.48
2022-11-13T21:38:43.818Z,9.44
2022-11-13T21:41:21.937Z,9.33
2022-11-13T21:44:00.007Z,9.42
2022-11-13T21:46:31.063Z,9.59
2022-11-13T21:49:05.392Z,9.42
2022-11-13T21:51:34.694Z,9.46
2022-11-13T21:54:01.751Z,9.46
2022-11-13T21:56:30.834Z,9.44
2022-11-13T21:58:58.038Z,9.53
2022-11-13T22:01:25.948Z,9.62
2022-11-13T22:03:53.684Z,9.74
2022-11-13T22:06:28.443Z,9.59
2022-11-13T22:09:06.409Z,9.74
2022-11-13T22:11:36.226Z,9.62
2022-11-13T22:14:04.034Z,9.37
2022-11-13T22:16:34.324Z,9.43
2022-11-13T22:19:05.846Z,9.57
2022-11-13T22:21:33.189Z,9.54
2022-11-13T22:24:00.806Z,9.55
2022-11-13T22:26:29.740Z,9.54
2022-11-13T22:28:58.596Z,9.59
2022-11-13T22:31:30.770Z,9.49
2022-11-13T22:33:58.376Z,9.74
2022-11-13T22:36:36.566Z,9.48
2022-11-13T22:39:04.825Z,9.39
2022-11-13T22:41:35.244Z,9.42
2022-11-13T22:44:08.085Z,9.34
2022-11-13T22:46:36.656Z,9.24
2022-11-13T22:49:05.871Z,9.39
2022-11-13T22:51:41.140Z,9.55
2022-11-13T22:54:12.750Z,9.30
2022-11-13T22:56:41.240Z,9.39
2022-11-13T22:59:12.020Z,9.28
2022-11-13T23:01:41.356Z,9.44
2022-11-13T23:04:13.199Z,9.30
2022-11-13T23:06:40.157Z,9.58
2022-11-13T23:09:07.496Z,9.60
2022-11-13T23:11:40.463Z,9.54
2022-11-13T23:14:12.335Z,9.52
2022-11-13T23:16:39.683Z,9.43
2022-11-13T23:19:07.025Z,9.19
2022-11-13T23:21:34.392Z,9.17
2022-11-13T23:24:01.715Z,9.43
2022-11-13T23:26:29.406Z,9.22
2022-11-13T23:28:56.972Z,9.32
2022-11-13T23:31:24.169Z,9.28
2022-11-13T23:33:51.170Z,9.43
2022-11-13T23:36:18.290Z,9.31
2022-11-13T23:38:45.673Z,9.45
2022-11-13T23:41:13.462Z,9.26
2022-11-13T23:44:07.656Z,9.43
2022-11-13T23:46:27.519Z,9.33
2022-11-13T23:48:54.497Z,9.24
2022-11-13T23:51:21.468Z,9.08
2022-11-13T23:53:48.438Z,9.05
2022-11-13T23:56:15.425Z,9.21
2022-11-13T23:58:42.438Z,9.33
